sensor_id;sensor_type;location;lat;lon;timestamp;P1;durP1;ratioP1;P2;durP2;ratioP2
18510;SDS011;9384;48.044;11.616;2022-11-22T00:00:42;5.83;;;4.20;;
18510;SDS011;9384;48.044;11.616;2022-11-22T00:03:09;4.53;;;4.13;;
18510;SDS011;9384;48.044;11.616;2022-11-22T00:05:36;4.70;;;4.30;;
18510;SDS011;9384;48.044;11.616;2022-11-22T00:08:03;4.07;;;3.77;;
18510;SDS011;9384;48.044;11.616;2022-11-22T00:10:31;6.70;;;4.07;;
18510;SDS011;9384;48.044;11.616;2022-11-22T00:12:58;4.30;;;3.93;;
18510;SDS011;9384;48.044;11.616;2022-11-22T00:15:25;4.33;;;4.03;;
18510;SDS011;9384;48.044;11.616;2022-11-22T00:17:53;4.90;;;4.50;;
18510;SDS011;9384;48.044;11.616;2022-11-22T00:20:21;4.60;;;4.30;;
18510;SDS011;9384;48.044;11.616;2022-11-22T00:22:47;4.37;;;4.07;;
18510;SDS011;9384;48.044;11.616;2022-11-22T00:25:14;4.23;;;3.93;;
18510;SDS011;9384;48.044;11.616;2022-11-22T00:27:43;4.47;;;4.13;;
18510;SDS011;9384;48.044;11.616;2022-11-22T00:30:10;5.43;;;4.53;;
18510;SDS011;9384;48.044;11.616;2022-11-22T00:32:37;4.37;;;4.07;;
18510;SDS011;9384;48.044;11.616;2022-11-22T00:35:04;7.00;;;4.40;;
18510;SDS011;9384;48.044;11.616;2022-11-22T00:37:31;4.50;;;4.20;;
18510;SDS011;9384;48.044;11.616;2022-11-22T00:39:58;4.37;;;3.97;;
18510;SDS011;9384;48.044;11.616;2022-11-22T00:42:26;4.67;;;4.20;;
18510;SDS011;9384;48.044;11.616;2022-11-22T00:44:54;3.93;;;3.33;;
18510;SDS011;9384;48.044;11.616;2022-11-22T00:47:21;3.37;;;3.17;;
18510;SDS011;9384;48.044;11.616;2022-11-22T00:49:48;2.67;;;2.47;;
18510;SDS011;9384;48.044;11.616;2022-11-22T00:52:15;4.20;;;2.93;;
18510;SDS011;9384;48.044;11.616;2022-11-22T00:54:42;2.90;;;2.70;;
18510;SDS011;9384;48.044;11.616;2022-11-22T00:57:09;2.20;;;2.10;;
18510;SDS011;9384;48.044;11.616;2022-11-22T00:59:36;2.20;;;2.10;;
18510;SDS011;9384;48.044;11.616;2022-11-22T01:02:04;3.50;;;2.00;;
18510;SDS011;9384;48.044;11.616;2022-11-22T01:04:31;2.17;;;2.00;;
18510;SDS011;9384;48.044;11.616;2022-11-22T01:06:58;2.20;;;2.10;;
18510;SDS011;9384;48.044;11.616;2022-11-22T01:09:24;3.23;;;2.10;;
18510;SDS011;9384;48.044;11.616;2022-11-22T01:11:51;1.97;;;1.70;;
18510;SDS011;9384;48.044;11.616;2022-11-22T01:14:18;1.63;;;1.60;;
18510;SDS011;9384;48.044;11.616;2022-11-22T01:16:45;2.40;;;1.70;;
18510;SDS011;9384;48.044;11.616;2022-11-22T01:19:14;1.40;;;1.40;;
18510;SDS011;9384;48.044;11.616;2022-11-22T01:21:41;1.50;;;1.50;;
18510;SDS011;9384;48.044;11.616;2022-11-22T01:24:07;1.50;;;1.50;;
18510;SDS011;9384;48.044;11.616;2022-11-22T01:26:35;1.67;;;1.57;;
18510;SDS011;9384;48.044;11.616;2022-11-22T01:29:02;1.30;;;1.30;;
18510;SDS011;9384;48.044;11.616;2022-11-22T01:31:29;1.33;;;1.33;;
18510;SDS011;9384;48.044;11.616;2022-11-22T01:33:56;1.33;;;1.33;;
18510;SDS011;9384;48.044;11.616;2022-11-22T01:36:24;1.30;;;1.20;;
18510;SDS011;9384;48.044;11.616;2022-11-22T01:38:51;1.37;;;1.37;;
18510;SDS011;9384;48.044;11.616;2022-11-22T01:41:18;1.33;;;1.33;;
18510;SDS011;9384;48.044;11.616;2022-11-22T01:43:45;1.50;;;1.40;;
18510;SDS011;9384;48.044;11.616;2022-11-22T01:46:14;1.50;;;1.40;;
18510;SDS011;9384;48.044;11.616;2022-11-22T01:48:48;1.60;;;1.50;;
18510;SDS011;9384;48.044;11.616;2022-11-22T01:51:19;1.47;;;1.40;;
18510;SDS011;9384;48.044;11.616;2022-11-22T01:53:53;1.50;;;1.50;;
18510;SDS011;9384;48.044;11.616;2022-11-22T01:56:23;2.10;;;1.40;;
18510;SDS011;9384;48.044;11.616;2022-11-22T01:58:53;1.90;;;1.77;;
18510;SDS011;9384;48.044;11.616;2022-11-22T02:01:23;1.47;;;1.47;;
18510;SDS011;9384;48.044;11.616;2022-11-22T02:03:50;5.07;;;1.60;;
18510;SDS011;9384;48.044;11.616;2022-11-22T02:06:18;1.63;;;1.63;;
18510;SDS011;9384;48.044;11.616;2022-11-22T02:08:49;1.80;;;1.80;;
18510;SDS011;9384;48.044;11.616;2022-11-22T02:11:21;1.70;;;1.70;;
18510;SDS011;9384;48.044;11.616;2022-11-22T02:13:49;1.83;;;1.77;;
18510;SDS011;9384;48.044;11.616;2022-11-22T02:16:17;1.87;;;1.77;;
18510;SDS011;9384;48.044;11.616;2022-11-22T02:18:45;1.60;;;1.60;;
18510;SDS011;9384;48.044;11.616;2022-11-22T02:21:12;1.63;;;1.53;;
18510;SDS011;9384;48.044;11.616;2022-11-22T02:23:48;1.60;;;1.60;;
18510;SDS011;9384;48.044;11.616;2022-11-22T02:26:24;2.03;;;1.67;;
18510;SDS011;9384;48.044;11.616;2022-11-22T02:28:52;1.40;;;1.40;;
18510;SDS011;9384;48.044;11.616;2022-11-22T02:31:32;1.63;;;1.60;;
18510;SDS011;9384;48.044;11.616;2022-11-22T02:34:00;1.70;;;1.60;;
18510;SDS011;9384;48.044;11.616;2022-11-22T02:36:27;1.53;;;1.43;;
18510;SDS011;9384;48.044;11.616;2022-11-22T02:38:55;1.50;;;1.40;;
18510;SDS011;9384;48.044;11.616;2022-11-22T02:41:24;1.60;;;1.50;;
18510;SDS011;9384;48.044;11.616;2022-11-22T02:43:51;1.40;;;1.30;;
18510;SDS011;9384;48.044;11.616;2022-11-22T02:46:18;1.13;;;1.13;;
18510;SDS011;9384;48.044;11.616;2022-11-22T02:48:47;0.97;;;0.97;;
18510;SDS011;9384;48.044;11.616;2022-11-22T02:51:15;1.30;;;1.03;;
18510;SDS011;9384;48.044;11.616;2022-11-22T02:53:44;1.10;;;1.10;;
18510;SDS011;9384;48.044;11.616;2022-11-22T02:56:11;1.20;;;1.10;;
18510;SDS011;9384;48.044;11.616;2022-11-22T02:58:39;1.30;;;0.97;;
18510;SDS011;9384;48.044;11.616;2022-11-22T03:01:06;1.33;;;1.03;;
18510;SDS011;9384;48.044;11.616;2022-11-22T03:03:33;1.00;;;1.00;;
18510;SDS011;9384;48.044;11.616;2022-11-22T03:06:00;1.10;;;1.10;;
18510;SDS011;9384;48.044;11.616;2022-11-22T03:08:27;1.47;;;1.13;;
18510;SDS011;9384;48.044;11.616;2022-11-22T03:10:55;1.20;;;1.20;;
18510;SDS011;9384;48.044;11.616;2022-11-22T03:13:23;0.90;;;0.90;;
18510;SDS011;9384;48.044;11.616;2022-11-22T03:15:51;0.90;;;0.90;;
18510;SDS011;9384;48.044;11.616;2022-11-22T03:18:18;1.57;;;1.00;;
18510;SDS011;9384;48.044;11.616;2022-11-22T03:20:45;1.00;;;1.00;;
18510;SDS011;9384;48.044;11.616;2022-11-22T03:23:12;1.00;;;1.00;;
18510;SDS011;9384;48.044;11.616;2022-11-22T03:25:39;1.23;;;1.23;;
18510;SDS011;9384;48.044;11.616;2022-11-22T03:28:06;1.80;;;1.23;;
18510;SDS011;9384;48.044;11.616;2022-11-22T03:30:33;1.10;;;1.10;;
18510;SDS011;9384;48.044;11.616;2022-11-22T03:33:01;1.40;;;1.40;;
18510;SDS011;9384;48.044;11.616;2022-11-22T03:35:27;1.43;;;1.20;;
18510;SDS011;9384;48.044;11.616;2022-11-22T03:37:54;1.27;;;1.20;;
18510;SDS011;9384;48.044;11.616;2022-11-22T03:40:21;1.13;;;1.10;;
18510;SDS011;9384;48.044;11.616;2022-11-22T03:42:48;1.33;;;1.30;;
18510;SDS011;9384;48.044;11.616;2022-11-22T03:45:15;1.20;;;1.20;;
18510;SDS011;9384;48.044;11.616;2022-11-22T03:47:41;1.60;;;1.50;;
18510;SDS011;9384;48.044;11.616;2022-11-22T03:50:10;1.20;;;1.20;;
18510;SDS011;9384;48.044;11.616;2022-11-22T03:52:36;1.93;;;1.23;;
18510;SDS011;9384;48.044;11.616;2022-11-22T03:55:03;1.33;;;1.33;;
18510;SDS011;9384;48.044;11.616;2022-11-22T03:57:30;3.30;;;1.20;;
18510;SDS011;9384;48.044;11.616;2022-11-22T03:59:57;1.23;;;1.13;;
18510;SDS011;9384;48.044;11.616;2022-11-22T04:02:24;1.20;;;1.20;;
18510;SDS011;9384;48.044;11.616;2022-11-22T04:04:51;1.37;;;1.37;;
18510;SDS011;9384;48.044;11.616;2022-11-22T04:07:19;1.13;;;1.13;;
18510;SDS011;9384;48.044;11.616;2022-11-22T04:09:46;1.40;;;1.40;;
18510;SDS011;9384;48.044;11.616;2022-11-22T04:12:12;1.40;;;1.40;;
18510;SDS011;9384;48.044;11.616;2022-11-22T04:14:39;1.97;;;1.37;;
18510;SDS011;9384;48.044;11.616;2022-11-22T04:17:23;1.20;;;1.10;;
18510;SDS011;9384;48.044;11.616;2022-11-22T04:20:04;1.80;;;1.70;;
18510;SDS011;9384;48.044;11.616;2022-11-22T04:22:55;1.30;;;1.30;;
18510;SDS011;9384;48.044;11.616;2022-11-22T04:25:22;2.30;;;1.40;;
18510;SDS011;9384;48.044;11.616;2022-11-22T04:27:49;1.50;;;1.50;;
18510;SDS011;9384;48.044;11.616;2022-11-22T04:30:16;2.30;;;1.40;;
18510;SDS011;9384;48.044;11.616;2022-11-22T04:32:43;1.47;;;1.40;;
18510;SDS011;9384;48.044;11.616;2022-11-22T04:35:12;1.90;;;1.30;;
18510;SDS011;9384;48.044;11.616;2022-11-22T04:37:40;1.97;;;1.87;;
18510;SDS011;9384;48.044;11.616;2022-11-22T04:40:15;1.60;;;1.50;;
18510;SDS011;9384;48.044;11.616;2022-11-22T04:42:42;1.60;;;1.50;;
18510;SDS011;9384;48.044;11.616;2022-11-22T04:45:26;2.20;;;1.70;;
18510;SDS011;9384;48.044;11.616;2022-11-22T04:47:52;1.90;;;1.30;;
18510;SDS011;9384;48.044;11.616;2022-11-22T04:50:26;1.70;;;1.40;;
18510;SDS011;9384;48.044;11.616;2022-11-22T04:53:11;2.10;;;1.40;;
18510;SDS011;9384;48.044;11.616;2022-11-22T04:55:40;1.20;;;1.20;;
18510;SDS011;9384;48.044;11.616;2022-11-22T04:58:07;1.30;;;1.20;;
18510;SDS011;9384;48.044;11.616;2022-11-22T05:00:34;1.37;;;1.10;;
18510;SDS011;9384;48.044;11.616;2022-11-22T05:03:01;1.27;;;1.27;;
18510;SDS011;9384;48.044;11.616;2022-11-22T05:05:28;1.20;;;1.20;;
18510;SDS011;9384;48.044;11.616;2022-11-22T05:07:56;1.63;;;1.30;;
18510;SDS011;9384;48.044;11.616;2022-11-22T05:10:23;1.23;;;1.00;;
18510;SDS011;9384;48.044;11.616;2022-11-22T05:12:52;2.07;;;1.10;;
18510;SDS011;9384;48.044;11.616;2022-11-22T05:15:19;1.27;;;1.17;;
18510;SDS011;9384;48.044;11.616;2022-11-22T05:17:46;1.77;;;1.17;;
18510;SDS011;9384;48.044;11.616;2022-11-22T05:20:13;3.30;;;1.40;;
18510;SDS011;9384;48.044;11.616;2022-11-22T05:22:40;1.33;;;1.23;;
18510;SDS011;9384;48.044;11.616;2022-11-22T05:25:23;3.53;;;1.40;;
18510;SDS011;9384;48.044;11.616;2022-11-22T05:27:52;1.40;;;0.93;;
18510;SDS011;9384;48.044;11.616;2022-11-22T05:30:20;1.27;;;1.17;;
18510;SDS011;9384;48.044;11.616;2022-11-22T05:32:47;1.07;;;1.07;;
18510;SDS011;9384;48.044;11.616;2022-11-22T05:35:13;4.93;;;1.50;;
18510;SDS011;9384;48.044;11.616;2022-11-22T05:37:40;1.07;;;1.00;;
18510;SDS011;9384;48.044;11.616;2022-11-22T05:40:08;4.10;;;1.00;;
18510;SDS011;9384;48.044;11.616;2022-11-22T05:42:36;1.07;;;0.93;;
18510;SDS011;9384;48.044;11.616;2022-11-22T05:45:04;2.00;;;1.00;;
18510;SDS011;9384;48.044;11.616;2022-11-22T05:47:32;1.10;;;1.10;;
18510;SDS011;9384;48.044;11.616;2022-11-22T05:50:00;1.23;;;1.10;;
18510;SDS011;9384;48.044;11.616;2022-11-22T05:52:27;1.20;;;1.10;;
18510;SDS011;9384;48.044;11.616;2022-11-22T05:54:54;1.07;;;1.07;;
18510;SDS011;9384;48.044;11.616;2022-11-22T05:57:21;1.30;;;1.30;;
18510;SDS011;9384;48.044;11.616;2022-11-22T05:59:47;2.33;;;1.40;;
18510;SDS011;9384;48.044;11.616;2022-11-22T06:02:16;1.10;;;1.10;;
18510;SDS011;9384;48.044;11.616;2022-11-22T06:04:43;1.40;;;1.40;;
18510;SDS011;9384;48.044;11.616;2022-11-22T06:07:09;1.00;;;1.00;;
18510;SDS011;9384;48.044;11.616;2022-11-22T06:09:36;1.30;;;1.30;;
18510;SDS011;9384;48.044;11.616;2022-11-22T06:12:03;1.30;;;1.20;;
18510;SDS011;9384;48.044;11.616;2022-11-22T06:14:30;1.23;;;1.20;;
18510;SDS011;9384;48.044;11.616;2022-11-22T06:16:57;3.13;;;1.20;;
18510;SDS011;9384;48.044;11.616;2022-11-22T06:19:25;2.00;;;1.23;;
18510;SDS011;9384;48.044;11.616;2022-11-22T06:21:52;1.23;;;1.20;;
18510;SDS011;9384;48.044;11.616;2022-11-22T06:24:19;1.23;;;1.03;;
18510;SDS011;9384;48.044;11.616;2022-11-22T06:26:46;2.00;;;1.13;;
18510;SDS011;9384;48.044;11.616;2022-11-22T06:29:13;1.03;;;1.03;;
18510;SDS011;9384;48.044;11.616;2022-11-22T06:31:39;1.00;;;1.00;;
18510;SDS011;9384;48.044;11.616;2022-11-22T06:34:07;2.20;;;1.20;;
18510;SDS011;9384;48.044;11.616;2022-11-22T06:36:36;1.93;;;1.40;;
18510;SDS011;9384;48.044;11.616;2022-11-22T06:39:03;1.20;;;1.10;;
18510;SDS011;9384;48.044;11.616;2022-11-22T06:41:30;1.60;;;1.10;;
18510;SDS011;9384;48.044;11.616;2022-11-22T06:44:01;1.23;;;1.10;;
18510;SDS011;9384;48.044;11.616;2022-11-22T06:46:30;1.30;;;1.30;;
18510;SDS011;9384;48.044;11.616;2022-11-22T06:48:57;1.20;;;1.20;;
18510;SDS011;9384;48.044;11.616;2022-11-22T06:51:24;1.83;;;1.67;;
18510;SDS011;9384;48.044;11.616;2022-11-22T06:53:54;1.47;;;1.43;;
18510;SDS011;9384;48.044;11.616;2022-11-22T06:56:22;3.77;;;1.53;;
18510;SDS011;9384;48.044;11.616;2022-11-22T06:58:51;2.17;;;2.00;;
18510;SDS011;9384;48.044;11.616;2022-11-22T07:01:19;1.43;;;1.40;;
18510;SDS011;9384;48.044;11.616;2022-11-22T07:03:47;2.33;;;1.60;;
18510;SDS011;9384;48.044;11.616;2022-11-22T07:06:15;1.80;;;1.70;;
18510;SDS011;9384;48.044;11.616;2022-11-22T07:08:43;2.87;;;2.00;;
18510;SDS011;9384;48.044;11.616;2022-11-22T07:11:12;3.90;;;1.50;;
18510;SDS011;9384;48.044;11.616;2022-11-22T07:13:41;1.87;;;1.77;;
18510;SDS011;9384;48.044;11.616;2022-11-22T07:16:09;4.50;;;1.50;;
18510;SDS011;9384;48.044;11.616;2022-11-22T07:18:38;2.40;;;2.20;;
18510;SDS011;9384;48.044;11.616;2022-11-22T07:21:05;2.23;;;2.07;;
18510;SDS011;9384;48.044;11.616;2022-11-22T07:23:33;1.80;;;1.70;;
18510;SDS011;9384;48.044;11.616;2022-11-22T07:26:00;1.60;;;1.50;;
18510;SDS011;9384;48.044;11.616;2022-11-22T07:28:28;2.50;;;1.93;;
18510;SDS011;9384;48.044;11.616;2022-11-22T07:30:57;3.00;;;1.70;;
18510;SDS011;9384;48.044;11.616;2022-11-22T07:33:24;3.33;;;1.73;;
18510;SDS011;9384;48.044;11.616;2022-11-22T07:35:51;2.10;;;1.80;;
18510;SDS011;9384;48.044;11.616;2022-11-22T07:38:18;1.57;;;1.47;;
18510;SDS011;9384;48.044;11.616;2022-11-22T07:40:45;3.67;;;1.77;;
18510;SDS011;9384;48.044;11.616;2022-11-22T07:43:12;7.13;;;1.63;;
18510;SDS011;9384;48.044;11.616;2022-11-22T07:45:40;3.80;;;1.73;;
18510;SDS011;9384;48.044;11.616;2022-11-22T07:48:07;4.47;;;2.20;;
18510;SDS011;9384;48.044;11.616;2022-11-22T07:50:38;8.43;;;2.37;;
18510;SDS011;9384;48.044;11.616;2022-11-22T07:53:06;4.10;;;2.10;;
18510;SDS011;9384;48.044;11.616;2022-11-22T07:55:33;5.67;;;2.40;;
18510;SDS011;9384;48.044;11.616;2022-11-22T07:58:01;2.30;;;2.10;;
18510;SDS011;9384;48.044;11.616;2022-11-22T08:00:28;6.17;;;2.20;;
18510;SDS011;9384;48.044;11.616;2022-11-22T08:02:57;2.20;;;2.00;;
18510;SDS011;9384;48.044;11.616;2022-11-22T08:05:25;2.70;;;2.20;;
18510;SDS011;9384;48.044;11.616;2022-11-22T08:07:52;2.97;;;1.83;;
18510;SDS011;9384;48.044;11.616;2022-11-22T08:10:19;2.00;;;1.90;;
18510;SDS011;9384;48.044;11.616;2022-11-22T08:12:47;6.93;;;4.47;;
18510;SDS011;9384;48.044;11.616;2022-11-22T08:15:14;4.77;;;2.67;;
18510;SDS011;9384;48.044;11.616;2022-11-22T08:17:42;5.07;;;2.00;;
18510;SDS011;9384;48.044;11.616;2022-11-22T08:20:10;3.30;;;1.90;;
18510;SDS011;9384;48.044;11.616;2022-11-22T08:22:38;9.87;;;2.30;;
18510;SDS011;9384;48.044;11.616;2022-11-22T08:25:06;8.00;;;3.90;;
18510;SDS011;9384;48.044;11.616;2022-11-22T08:27:36;6.33;;;3.27;;
18510;SDS011;9384;48.044;11.616;2022-11-22T08:30:05;13.83;;;4.20;;
18510;SDS011;9384;48.044;11.616;2022-11-22T08:32:32;5.03;;;2.70;;
18510;SDS011;9384;48.044;11.616;2022-11-22T08:34:59;3.70;;;2.40;;
18510;SDS011;9384;48.044;11.616;2022-11-22T08:37:28;8.03;;;2.83;;
18510;SDS011;9384;48.044;11.616;2022-11-22T08:39:55;5.93;;;3.10;;
18510;SDS011;9384;48.044;11.616;2022-11-22T08:42:22;3.57;;;2.80;;
18510;SDS011;9384;48.044;11.616;2022-11-22T08:44:48;4.93;;;2.73;;
18510;SDS011;9384;48.044;11.616;2022-11-22T08:47:15;4.97;;;2.30;;
18510;SDS011;9384;48.044;11.616;2022-11-22T08:49:42;5.53;;;2.50;;
18510;SDS011;9384;48.044;11.616;2022-11-22T08:52:09;3.60;;;2.80;;
18510;SDS011;9384;48.044;11.616;2022-11-22T08:54:37;7.17;;;2.37;;
18510;SDS011;9384;48.044;11.616;2022-11-22T08:57:04;3.27;;;2.00;;
18510;SDS011;9384;48.044;11.616;2022-11-22T08:59:31;2.40;;;1.80;;
18510;SDS011;9384;48.044;11.616;2022-11-22T09:01:58;7.80;;;2.57;;
18510;SDS011;9384;48.044;11.616;2022-11-22T09:04:25;7.20;;;2.10;;
18510;SDS011;9384;48.044;11.616;2022-11-22T09:06:52;5.60;;;2.00;;
18510;SDS011;9384;48.044;11.616;2022-11-22T09:09:19;5.23;;;1.93;;
18510;SDS011;9384;48.044;11.616;2022-11-22T09:11:47;4.97;;;1.90;;
18510;SDS011;9384;48.044;11.616;2022-11-22T09:14:14;2.60;;;1.63;;
18510;SDS011;9384;48.044;11.616;2022-11-22T09:16:41;5.30;;;1.50;;
18510;SDS011;9384;48.044;11.616;2022-11-22T09:19:07;8.33;;;1.80;;
18510;SDS011;9384;48.044;11.616;2022-11-22T09:21:34;6.07;;;2.27;;
18510;SDS011;9384;48.044;11.616;2022-11-22T09:24:01;7.03;;;1.90;;
18510;SDS011;9384;48.044;11.616;2022-11-22T09:26:28;3.97;;;1.90;;
18510;SDS011;9384;48.044;11.616;2022-11-22T09:28:57;2.00;;;1.63;;
18510;SDS011;9384;48.044;11.616;2022-11-22T09:31:23;4.50;;;1.63;;
18510;SDS011;9384;48.044;11.616;2022-11-22T09:33:50;6.77;;;1.80;;
18510;SDS011;9384;48.044;11.616;2022-11-22T09:36:18;9.73;;;2.53;;
18510;SDS011;9384;48.044;11.616;2022-11-22T09:38:46;2.33;;;1.93;;
18510;SDS011;9384;48.044;11.616;2022-11-22T09:41:27;7.37;;;1.93;;
18510;SDS011;9384;48.044;11.616;2022-11-22T09:44:15;7.60;;;1.93;;
18510;SDS011;9384;48.044;11.616;2022-11-22T09:46:49;7.37;;;2.17;;
18510;SDS011;9384;48.044;11.616;2022-11-22T09:49:25;7.40;;;2.33;;
18510;SDS011;9384;48.044;11.616;2022-11-22T09:51:54;6.93;;;2.77;;
18510;SDS011;9384;48.044;11.616;2022-11-22T09:54:25;4.53;;;1.90;;
18510;SDS011;9384;48.044;11.616;2022-11-22T09:56:56;10.27;;;2.70;;
18510;SDS011;9384;48.044;11.616;2022-11-22T09:59:28;5.37;;;2.27;;
18510;SDS011;9384;48.044;11.616;2022-11-22T10:01:58;5.97;;;2.67;;
18510;SDS011;9384;48.044;11.616;2022-11-22T10:04:31;8.07;;;1.70;;
18510;SDS011;9384;48.044;11.616;2022-11-22T10:07:04;8.30;;;1.50;;
18510;SDS011;9384;48.044;11.616;2022-11-22T10:09:37;4.30;;;1.87;;
18510;SDS011;9384;48.044;11.616;2022-11-22T10:12:08;5.20;;;1.43;;
18510;SDS011;9384;48.044;11.616;2022-11-22T10:14:43;3.83;;;1.60;;
18510;SDS011;9384;48.044;11.616;2022-11-22T10:17:21;2.53;;;1.50;;
18510;SDS011;9384;48.044;11.616;2022-11-22T10:19:57;3.00;;;1.90;;
18510;SDS011;9384;48.044;11.616;2022-11-22T10:22:29;4.40;;;1.60;;
18510;SDS011;9384;48.044;11.616;2022-11-22T10:24:57;5.30;;;1.60;;
18510;SDS011;9384;48.044;11.616;2022-11-22T10:27:25;2.47;;;1.50;;
18510;SDS011;9384;48.044;11.616;2022-11-22T10:29:59;2.50;;;1.73;;
18510;SDS011;9384;48.044;11.616;2022-11-22T10:32:31;1.60;;;1.30;;
18510;SDS011;9384;48.044;11.616;2022-11-22T10:35:13;2.80;;;1.67;;
18510;SDS011;9384;48.044;11.616;2022-11-22T10:37:58;3.47;;;1.70;;
18510;SDS011;9384;48.044;11.616;2022-11-22T10:40:49;5.27;;;1.90;;
18510;SDS011;9384;48.044;11.616;2022-11-22T10:43:24;2.67;;;1.67;;
18510;SDS011;9384;48.044;11.616;2022-11-22T10:46:00;3.93;;;1.60;;
18510;SDS011;9384;48.044;11.616;2022-11-22T10:48:35;4.83;;;1.83;;
18510;SDS011;9384;48.044;11.616;2022-11-22T10:51:09;4.93;;;1.77;;
18510;SDS011;9384;48.044;11.616;2022-11-22T10:53:44;2.33;;;1.67;;
18510;SDS011;9384;48.044;11.616;2022-11-22T10:56:21;7.50;;;2.10;;
18510;SDS011;9384;48.044;11.616;2022-11-22T10:58:58;4.13;;;3.10;;
18510;SDS011;9384;48.044;11.616;2022-11-22T11:01:38;3.63;;;2.63;;
18510;SDS011;9384;48.044;11.616;2022-11-22T11:04:10;2.87;;;1.60;;
18510;SDS011;9384;48.044;11.616;2022-11-22T11:06:39;2.53;;;1.30;;
18510;SDS011;9384;48.044;11.616;2022-11-22T11:09:09;3.83;;;1.37;;
18510;SDS011;9384;48.044;11.616;2022-11-22T11:11:40;3.03;;;1.17;;
18510;SDS011;9384;48.044;11.616;2022-11-22T11:14:11;1.30;;;1.20;;
18510;SDS011;9384;48.044;11.616;2022-11-22T11:16:49;2.77;;;1.27;;
18510;SDS011;9384;48.044;11.616;2022-11-22T11:19:18;3.67;;;1.40;;
18510;SDS011;9384;48.044;11.616;2022-11-22T11:21:46;2.67;;;1.40;;
18510;SDS011;9384;48.044;11.616;2022-11-22T11:24:21;2.97;;;1.30;;
18510;SDS011;9384;48.044;11.616;2022-11-22T11:26:50;4.83;;;1.90;;
18510;SDS011;9384;48.044;11.616;2022-11-22T11:29:27;4.27;;;1.30;;
18510;SDS011;9384;48.044;11.616;2022-11-22T11:32:08;1.27;;;1.27;;
18510;SDS011;9384;48.044;11.616;2022-11-22T11:34:37;7.97;;;2.03;;
18510;SDS011;9384;48.044;11.616;2022-11-22T11:37:09;3.50;;;2.27;;
18510;SDS011;9384;48.044;11.616;2022-11-22T11:39:44;3.43;;;1.70;;
18510;SDS011;9384;48.044;11.616;2022-11-22T11:42:20;3.73;;;1.60;;
18510;SDS011;9384;48.044;11.616;2022-11-22T11:44:51;1.77;;;1.67;;
18510;SDS011;9384;48.044;11.616;2022-11-22T11:47:31;2.63;;;2.00;;
18510;SDS011;9384;48.044;11.616;2022-11-22T11:49:59;7.03;;;2.40;;
18510;SDS011;9384;48.044;11.616;2022-11-22T11:52:26;5.93;;;1.40;;
18510;SDS011;9384;48.044;11.616;2022-11-22T11:54:54;2.47;;;1.43;;
18510;SDS011;9384;48.044;11.616;2022-11-22T11:57:25;4.23;;;1.20;;
18510;SDS011;9384;48.044;11.616;2022-11-22T11:59:54;5.47;;;1.83;;
18510;SDS011;9384;48.044;11.616;2022-11-22T12:02:26;6.10;;;1.37;;
18510;SDS011;9384;48.044;11.616;2022-11-22T12:05:00;5.43;;;1.80;;
18510;SDS011;9384;48.044;11.616;2022-11-22T12:07:37;1.40;;;1.30;;
18510;SDS011;9384;48.044;11.616;2022-11-22T12:12:55;8.10;;;2.73;;
18510;SDS011;9384;48.044;11.616;2022-11-22T12:15:26;6.13;;;2.77;;
18510;SDS011;9384;48.044;11.616;2022-11-22T12:18:03;3.20;;;1.50;;
18510;SDS011;9384;48.044;11.616;2022-11-22T12:20:40;4.80;;;1.60;;
18510;SDS011;9384;48.044;11.616;2022-11-22T12:23:13;2.73;;;1.60;;
18510;SDS011;9384;48.044;11.616;2022-11-22T12:25:45;2.20;;;1.50;;
18510;SDS011;9384;48.044;11.616;2022-11-22T12:28:15;2.27;;;1.83;;
18510;SDS011;9384;48.044;11.616;2022-11-22T12:30:44;1.53;;;1.50;;
18510;SDS011;9384;48.044;11.616;2022-11-22T12:33:17;1.77;;;1.67;;
18510;SDS011;9384;48.044;11.616;2022-11-22T12:35:47;2.13;;;2.00;;
18510;SDS011;9384;48.044;11.616;2022-11-22T12:38:15;2.13;;;1.90;;
18510;SDS011;9384;48.044;11.616;2022-11-22T12:40:45;3.47;;;2.40;;
18510;SDS011;9384;48.044;11.616;2022-11-22T12:43:16;3.20;;;2.20;;
18510;SDS011;9384;48.044;11.616;2022-11-22T12:45:48;5.80;;;2.37;;
18510;SDS011;9384;48.044;11.616;2022-11-22T12:48:20;2.30;;;2.10;;
18510;SDS011;9384;48.044;11.616;2022-11-22T12:50:53;4.40;;;2.10;;
18510;SDS011;9384;48.044;11.616;2022-11-22T12:53:23;1.70;;;1.60;;
18510;SDS011;9384;48.044;11.616;2022-11-22T12:55:56;2.10;;;2.00;;
18510;SDS011;9384;48.044;11.616;2022-11-22T12:58:31;4.67;;;2.20;;
18510;SDS011;9384;48.044;11.616;2022-11-22T13:01:06;4.07;;;2.17;;
18510;SDS011;9384;48.044;11.616;2022-11-22T13:03:41;2.93;;;2.20;;
18510;SDS011;9384;48.044;11.616;2022-11-22T13:06:13;4.73;;;2.00;;
18510;SDS011;9384;48.044;11.616;2022-11-22T13:08:46;2.93;;;1.97;;
18510;SDS011;9384;48.044;11.616;2022-11-22T13:11:20;3.83;;;1.73;;
18510;SDS011;9384;48.044;11.616;2022-11-22T13:13:52;3.67;;;1.97;;
18510;SDS011;9384;48.044;11.616;2022-11-22T13:16:22;3.87;;;1.73;;
18510;SDS011;9384;48.044;11.616;2022-11-22T13:18:53;2.37;;;1.77;;
18510;SDS011;9384;48.044;11.616;2022-11-22T13:21:24;3.60;;;1.57;;
18510;SDS011;9384;48.044;11.616;2022-11-22T13:23:59;3.43;;;2.67;;
18510;SDS011;9384;48.044;11.616;2022-11-22T13:26:40;4.80;;;2.23;;
18510;SDS011;9384;48.044;11.616;2022-11-22T13:29:15;2.57;;;2.30;;
18510;SDS011;9384;48.044;11.616;2022-11-22T13:32:01;5.97;;;3.17;;
18510;SDS011;9384;48.044;11.616;2022-11-22T13:34:32;5.67;;;2.90;;
18510;SDS011;9384;48.044;11.616;2022-11-22T13:37:06;7.63;;;3.13;;
18510;SDS011;9384;48.044;11.616;2022-11-22T13:39:36;5.17;;;2.77;;
18510;SDS011;9384;48.044;11.616;2022-11-22T13:42:08;3.23;;;2.10;;
18510;SDS011;9384;48.044;11.616;2022-11-22T13:47:43;3.80;;;1.90;;
18510;SDS011;9384;48.044;11.616;2022-11-22T13:53:21;3.07;;;2.33;;
18510;SDS011;9384;48.044;11.616;2022-11-22T13:55:53;9.60;;;2.73;;
18510;SDS011;9384;48.044;11.616;2022-11-22T14:04:26;2.67;;;2.47;;
18510;SDS011;9384;48.044;11.616;2022-11-22T14:07:02;2.17;;;1.97;;
18510;SDS011;9384;48.044;11.616;2022-11-22T14:09:34;4.57;;;2.50;;
18510;SDS011;9384;48.044;11.616;2022-11-22T14:12:21;2.90;;;1.93;;
18510;SDS011;9384;48.044;11.616;2022-11-22T14:18:08;5.83;;;2.83;;
18510;SDS011;9384;48.044;11.616;2022-11-22T14:20:47;5.40;;;2.40;;
18510;SDS011;9384;48.044;11.616;2022-11-22T14:23:28;3.40;;;2.10;;
18510;SDS011;9384;48.044;11.616;2022-11-22T14:26:13;2.30;;;2.07;;
18510;SDS011;9384;48.044;11.616;2022-11-22T14:32:02;5.97;;;2.17;;
18510;SDS011;9384;48.044;11.616;2022-11-22T14:34:46;4.30;;;2.30;;
18510;SDS011;9384;48.044;11.616;2022-11-22T14:37:43;4.53;;;2.20;;
18510;SDS011;9384;48.044;11.616;2022-11-22T14:40:16;2.60;;;2.40;;
18510;SDS011;9384;48.044;11.616;2022-11-22T14:43:15;4.23;;;2.30;;
18510;SDS011;9384;48.044;11.616;2022-11-22T14:46:07;4.23;;;2.30;;
18510;SDS011;9384;48.044;11.616;2022-11-22T14:48:42;5.70;;;3.07;;
18510;SDS011;9384;48.044;11.616;2022-11-22T14:51:14;4.03;;;3.03;;
18510;SDS011;9384;48.044;11.616;2022-11-22T14:53:49;5.17;;;2.63;;
18510;SDS011;9384;48.044;11.616;2022-11-22T14:56:22;6.03;;;2.87;;
18510;SDS011;9384;48.044;11.616;2022-11-22T14:58:56;8.47;;;2.80;;
18510;SDS011;9384;48.044;11.616;2022-11-22T15:01:51;3.93;;;2.53;;
18510;SDS011;9384;48.044;11.616;2022-11-22T15:04:43;7.20;;;2.90;;
18510;SDS011;9384;48.044;11.616;2022-11-22T15:07:18;4.77;;;2.80;;
18510;SDS011;9384;48.044;11.616;2022-11-22T15:10:12;4.37;;;2.50;;
18510;SDS011;9384;48.044;11.616;2022-11-22T15:15:42;5.60;;;2.90;;
18510;SDS011;9384;48.044;11.616;2022-11-22T15:18:15;5.10;;;2.73;;
18510;SDS011;9384;48.044;11.616;2022-11-22T15:20:47;5.90;;;2.90;;
18510;SDS011;9384;48.044;11.616;2022-11-22T15:23:14;5.13;;;3.03;;
18510;SDS011;9384;48.044;11.616;2022-11-22T15:25:44;6.83;;;3.33;;
18510;SDS011;9384;48.044;11.616;2022-11-22T15:28:13;6.87;;;3.47;;
18510;SDS011;9384;48.044;11.616;2022-11-22T15:30:42;9.20;;;4.13;;